Time;durP1;ratioP1;P1;durP2;ratioP2;P2;SDS_P1;SDS_P2;PMS_P1;PMS_P2;Temp;Humidity;BMP_temperature;BMP_pressure;BME280_temperature;BME280_humidity;BME280_pressure;Samples;Min_cycle;Max_cycle;Signal;HPM_P1;HPM_P2
2021/01/04 00:00:14;;;;;;;13.95;9.23;;;;;;;2.80;100.00;100982.78;5008287;28;20489;-72
2021/01/04 00:03:12;;;;;;;;;;;;;;;2.74;100.00;100981.19;4991302;28;20025;-72
2021/01/04 00:05:51;;;;;;;15.55;9.85;;;;;;;2.72;100.00;100980.34;4946040;28;19959;-72
2021/01/04 00:08:41;;;;;;;18.13;10.73;;;;;;;2.80;100.00;100983.66;4991600;28;20040;-70
2021/01/04 00:11:28;;;;;;;16.55;9.95;;;;;;;2.87;100.00;100973.75;5007531;28;20490;-70
2021/01/04 00:13:57;;;;;;;17.50;10.45;;;;;;;2.78;100.00;100979.31;4989416;28;20041;-72
2021/01/04 00:16:33;;;;;;;17.27;10.52;;;;;;;2.75;100.00;100980.28;5008780;28;20042;-72
2021/01/04 00:19:04;;;;;;;18.02;10.50;;;;;;;2.81;100.00;100973.94;5006264;28;21748;-72
2021/01/04 00:21:44;;;;;;;16.38;9.50;;;;;;;2.83;100.00;100977.41;5008073;28;20034;-72
2021/01/04 00:24:48;;;;;;;15.45;9.80;;;;;;;2.72;100.00;100982.13;5008760;28;20041;-71
2021/01/04 00:27:31;;;;;;;18.95;10.55;;;;;;;2.74;100.00;100988.25;4955565;28;20414;-72
2021/01/04 00:30:01;;;;;;;17.20;9.80;;;;;;;2.72;100.00;100980.34;5005536;28;20038;-69
2021/01/04 00:32:33;;;;;;;17.40;10.25;;;;;;;2.67;100.00;100981.41;5008550;28;20037;-72
2021/01/04 00:35:06;;;;;;;17.10;10.25;;;;;;;2.63;100.00;100982.41;5009704;28;20037;-72
2021/01/04 00:37:37;;;;;;;19.08;10.52;;;;;;;2.75;100.00;100984.72;4994712;28;20145;-71
2021/01/04 00:40:24;;;;;;;17.83;10.15;;;;;;;2.78;100.00;100979.31;5008570;28;20037;-72
2021/01/04 00:42:50;;;;;;;17.05;9.75;;;;;;;2.73;100.00;100981.22;4989728;28;20034;-72
2021/01/04 00:45:27;;;;;;;16.58;10.63;;;;;;;2.87;100.00;100978.19;5009810;28;20509;-72
2021/01/04 00:48:17;;;;;;;17.77;10.50;;;;;;;2.70;100.00;100970.72;5008712;28;20397;-70
2021/01/04 00:51:02;;;;;;;17.88;10.60;;;;;;;2.66;100.00;100974.34;5004722;28;20038;-72
2021/01/04 00:53:43;;;;;;;18.83;10.55;;;;;;;2.61;100.00;100976.25;4989239;28;20125;-72
2021/01/04 00:56:32;;;;;;;16.95;10.27;;;;;;;2.67;100.00;100971.66;5006533;28;20037;-70
2021/01/04 00:59:11;;;;;;;19.83;11.27;;;;;;;2.57;100.00;100975.50;4986562;28;20038;-72
2021/01/04 01:01:58;;;;;;;19.48;11.15;;;;;;;2.61;100.00;100970.97;5004907;28;20047;-70
2021/01/04 01:04:36;;;;;;;18.27;11.60;;;;;;;2.52;100.00;100965.94;4988108;28;20474;-70
2021/01/04 01:07:11;;;;;;;22.80;12.77;;;;;;;2.52;100.00;100971.22;4986563;28;20565;-68
2021/01/04 01:09:40;;;;;;;22.40;13.40;;;;;;;2.55;100.00;100974.66;5004235;28;20391;-71
2021/01/04 01:12:29;;;;;;;23.48;12.27;;;;;;;2.55;100.00;100976.44;5007303;28;20129;-72
2021/01/04 01:14:57;;;;;;;21.15;11.23;;;;;;;2.48;100.00;100969.56;4955439;28;20104;-72
2021/01/04 01:18:00;;;;;;;20.13;11.27;;;;;;;2.52;100.00;100977.41;4986103;28;20084;-72
2021/01/04 01:20:27;;;;;;;18.08;10.75;;;;;;;2.60;100.00;100985.13;5003456;28;20067;-72
2021/01/04 01:22:53;;;;;;;22.08;11.27;;;;;;;2.50;100.00;100983.66;5007731;28;20121;-72
2021/01/04 01:25:22;;;;;;;20.75;11.25;;;;;;;2.56;100.00;100980.81;5007180;28;20044;-72
2021/01/04 01:28:25;;;;;;;20.15;12.40;;;;;;;2.58;100.00;100981.66;5006995;28;20484;-71
2021/01/04 01:31:22;;;;;;;21.70;11.93;;;;;;;2.44;100.00;100985.56;5008159;28;20042;-72
2021/01/04 01:34:02;;;;;;;20.70;11.40;;;;;;;2.55;100.00;100984.38;5006263;28;20117;-72
2021/01/04 01:36:55;;;;;;;19.05;11.18;;;;;;;2.54;100.00;100985.28;5007191;28;21653;-72
2021/01/04 01:39:59;;;;;;;21.42;13.00;;;;;;;2.56;100.00;100987.00;5004923;28;20037;-72
2021/01/04 01:42:57;;;;;;;19.63;11.68;;;;;;;2.56;100.00;100983.47;5007099;28;20548;-72
2021/01/04 01:45:29;;;;;;;23.65;13.10;;;;;;;2.55;100.00;100992.34;4976107;28;20157;-72
2021/01/04 01:47:55;;;;;;;21.83;12.40;;;;;;;2.56;100.00;100988.78;5003950;28;20036;-71
2021/01/04 01:50:52;;;;;;;21.23;12.00;;;;;;;2.62;100.00;100984.19;5007274;28;20296;-72
2021/01/04 01:53:25;;;;;;;21.38;12.02;;;;;;;2.51;100.00;100991.56;5007156;28;20525;-72
2021/01/04 01:56:05;;;;;;;21.15;12.30;;;;;;;2.65;100.00;100988.53;5004227;28;20057;-70
2021/01/04 01:59:10;;;;;;;20.50;12.07;;;;;;;2.61;100.00;100986.88;5007405;28;20030;-71
2021/01/04 02:01:59;;;;;;;17.70;12.18;;;;;;;2.62;100.00;100984.19;4995147;28;20045;-72
2021/01/04 02:04:49;;;;;;;18.48;12.18;;;;;;;2.60;100.00;100985.13;4990394;28;20050;-72
2021/01/04 02:07:26;;;;;;;21.17;13.38;;;;;;;2.60;100.00;100985.13;5002546;28;20114;-72
2021/01/04 02:09:58;;;;;;;19.00;11.57;;;;;;;2.59;100.00;100986.06;5004991;28;20030;-71
2021/01/04 02:13:04;;;;;;;22.05;12.27;;;;;;;2.48;100.00;100981.03;4987764;28;20038;-72
2021/01/04 02:15:54;;;;;;;20.75;12.48;;;;;;;2.45;100.00;100989.06;5001814;28;20038;-72
2021/01/04 02:18:33;;;;;;;22.85;13.07;;;;;;;2.41;100.00;100979.44;5005946;28;20128;-71
2021/01/04 02:21:25;;;;;;;21.77;13.32;;;;;;;2.40;100.00;100973.31;4990889;28;20394;-72
2021/01/04 02:24:05;;;;;;;21.60;12.73;;;;;;;2.42;100.00;100974.13;5007998;28;20137;-71
2021/01/04 02:26:31;;;;;;;18.42;11.45;;;;;;;2.54;100.00;100975.56;5007211;28;20105;-72
2021/01/04 02:29:05;;;;;;;20.38;12.45;;;;;;;2.45;100.00;100983.78;4988866;28;20525;-72
2021/01/04 02:31:33;;;;;;;19.58;12.70;;;;;;;2.43;100.00;100982.94;4988100;28;20042;-70
2021/01/04 02:33:58;;;;;;;19.48;12.45;;;;;;;2.38;100.00;100984.84;5008023;28;20037;-71
2021/01/04 02:36:29;;;;;;;19.67;12.05;;;;;;;2.53;100.00;100980.94;4989432;28;20502;-72
2021/01/04 02:39:06;;;;;;;18.55;12.40;;;;;;;2.48;100.00;100981.03;5007252;28;20029;-72
2021/01/04 02:42:02;;;;;;;20.50;13.05;;;;;;;2.43;100.00;100988.22;5007917;28;20398;-72
2021/01/04 02:44:28;;;;;;;20.25;12.82;;;;;;;2.48;100.00;100978.38;4996594;28;20041;-72
2021/01/04 02:47:18;;;;;;;23.13;13.27;;;;;;;2.51;100.00;100985.38;5004385;28;20600;-72
2021/01/04 02:49:50;;;;;;;19.73;12.50;;;;;;;2.42;100.00;100982.06;4983827;28;20121;-72
2021/01/04 02:52:23;;;;;;;18.80;12.90;;;;;;;2.43;100.00;100981.16;4988111;28;20037;-71
2021/01/04 02:54:59;;;;;;;23.38;13.10;;;;;;;2.50;100.00;100984.50;5007313;28;20096;-72
2021/01/04 02:57:37;;;;;;;19.00;12.75;;;;;;;2.43;100.00;100983.81;5001591;28;20109;-72
2021/01/04 03:00:12;;;;;;;20.55;13.35;;;;;;;2.47;100.00;100989.03;5009596;28;20037;-72
2021/01/04 03:02:44;;;;;;;21.02;13.57;;;;;;;2.48;100.00;100996.06;5009801;28;20038;-72
2021/01/04 03:05:13;;;;;;;20.02;12.38;;;;;;;2.43;100.00;101005.00;5009824;28;21060;-72
2021/01/04 03:07:38;;;;;;;23.02;13.57;;;;;;;2.50;100.00;100997.75;5009615;28;20494;-72
2021/01/04 03:10:18;;;;;;;22.75;14.40;;;;;;;2.47;100.00;100992.53;5010316;28;20030;-71
2021/01/04 03:12:57;;;;;;;21.73;14.07;;;;;;;2.48;100.00;101001.34;5010066;28;20034;-71
2021/01/04 03:15:42;;;;;;;25.05;13.43;;;;;;;2.44;100.00;100990.84;5008610;28;20029;-72
2021/01/04 03:18:17;;;;;;;24.02;14.35;;;;;;;2.49;100.00;100997.78;5007546;28;20496;-71
2021/01/04 03:20:43;;;;;;;24.33;14.80;;;;;;;2.44;100.00;101000.56;5010846;28;20044;-72
2021/01/04 03:23:09;;;;;;;23.00;13.82;;;;;;;2.36;100.00;101005.19;4993213;28;20038;-71
2021/01/04 03:25:55;;;;;;;22.73;14.02;;;;;;;2.38;100.00;100996.31;4992245;28;20045;-72
2021/01/04 03:28:28;;;;;;;22.05;12.93;;;;;;;2.29;100.00;100996.53;5007630;28;20049;-72
2021/01/04 03:30:55;;;;;;;25.88;14.60;;;;;;;2.24;100.00;100993.16;5010026;28;20089;-72
2021/01/04 03:33:21;;;;;;;23.35;14.35;;;;;;;2.35;100.00;100993.72;4994625;28;20424;-72
2021/01/04 03:35:47;;;;;;;21.83;13.25;;;;;;;2.38;100.00;101001.63;4992901;28;20038;-72
2021/01/04 03:38:13;;;;;;;22.95;14.73;;;;;;;2.44;100.00;100987.31;5008780;28;20073;-71
2021/01/04 03:40:39;;;;;;;25.90;13.68;;;;;;;2.39;100.00;100997.19;4994195;28;20053;-72
2021/01/04 03:43:05;;;;;;;22.58;13.68;;;;;;;2.38;100.00;100985.72;4991996;28;20561;-72
2021/01/04 03:45:30;;;;;;;23.40;13.98;;;;;;;2.31;100.00;100988.56;5012092;28;20037;-72
2021/01/04 03:47:56;;;;;;;22.92;13.45;;;;;;;2.35;100.00;100991.06;4992326;28;20056;-70
2021/01/04 03:50:22;;;;;;;21.70;13.82;;;;;;;2.39;100.00;100982.16;4992455;28;20041;-72
2021/01/04 03:52:47;;;;;;;22.35;13.50;;;;;;;2.38;100.00;101001.63;5004942;28;20095;-71
2021/01/04 03:55:15;;;;;;;25.20;15.30;;;;;;;2.33;100.00;100994.69;5008165;28;20045;-72
2021/01/04 03:57:41;;;;;;;22.33;14.43;;;;;;;2.39;100.00;100986.59;5010403;28;20041;-72
2021/01/04 04:00:08;;;;;;;23.95;14.43;;;;;;;2.48;100.00;100982.81;5010139;28;20038;-72
2021/01/04 04:02:38;;;;;;;26.83;15.10;;;;;;;2.37;100.00;100986.63;5009726;28;20052;-72
2021/01/04 04:05:05;;;;;;;25.20;14.90;;;;;;;2.34;100.00;100989.38;4992067;28;20026;-72
2021/01/04 04:07:31;;;;;;;25.08;15.45;;;;;;;2.37;100.00;100983.09;5009013;28;20053;-71
2021/01/04 04:09:56;;;;;;;25.65;15.82;;;;;;;2.30;100.00;100985.03;5009163;28;20038;-70
2021/01/04 04:12:21;;;;;;;26.63;15.52;;;;;;;2.27;100.00;100993.09;4990767;28;20037;-72
2021/01/04 04:14:48;;;;;;;30.02;16.45;;;;;;;2.27;100.00;100982.50;5009891;28;20033;-71
2021/01/04 04:17:15;;;;;;;29.52;15.82;;;;;;;2.37;100.00;100994.56;5009117;28;20026;-72
2021/01/04 04:19:44;;;;;;;28.40;16.45;;;;;;;2.31;100.00;100993.84;5009274;28;20501;-71
2021/01/04 04:22:09;;;;;;;28.48;15.57;;;;;;;2.46;100.00;100987.28;4995925;28;20049;-71
2021/01/04 04:24:38;;;;;;;29.80;17.58;;;;;;;2.36;100.00;100982.22;5009279;28;20037;-70
2021/01/04 04:27:04;;;;;;;27.92;16.98;;;;;;;2.35;100.00;100988.44;5007751;28;20038;-71
2021/01/04 04:29:30;;;;;;;33.00;17.05;;;;;;;2.34;100.00;100992.00;5008962;28;20044;-71
2021/01/04 04:31:55;;;;;;;33.15;17.98;;;;;;;2.42;100.00;100991.78;4991658;28;20482;-71
2021/01/04 04:34:21;;;;;;;34.22;18.75;;;;;;;2.41;100.00;100995.34;5008539;28;20022;-72
2021/01/04 04:36:46;;;;;;;28.48;16.80;;;;;;;2.47;100.00;100992.53;4989444;28;20289;-71
2021/01/04 04:39:13;;;;;;;32.47;16.70;;;;;;;2.43;100.00;101005.00;5009333;28;20034;-71
2021/01/04 04:41:51;;;;;;;30.33;17.20;;;;;;;2.49;100.00;101005.75;5007604;28;20057;-72
2021/01/04 04:44:47;;;;;;;25.25;15.05;;;;;;;2.51;100.00;101006.59;4993418;28;20038;-71
2021/01/04 04:47:47;;;;;;;25.08;14.90;;;;;;;2.39;100.00;100997.19;5007140;28;20034;-71
2021/01/04 04:50:31;;;;;;;26.40;15.05;;;;;;;2.39;100.00;101006.00;4971674;28;20145;-72
2021/01/04 04:53:12;;;;;;;24.40;13.70;;;;;;;2.40;100.00;100999.81;5006737;28;20503;-71
2021/01/04 04:56:08;;;;;;;24.80;14.85;;;;;;;2.47;100.00;100994.34;5009244;28;20434;-72
2021/01/04 04:58:43;;;;;;;22.40;13.52;;;;;;;2.38;100.00;101001.63;5013258;28;20265;-71
2021/01/04 05:01:33;;;;;;;22.83;13.35;;;;;;;2.46;100.00;100997.91;5009044;28;20821;-72
2021/01/04 05:04:24;;;;;;;20.63;13.13;;;;;;;2.47;100.00;100994.34;5007543;28;20488;-71
2021/01/04 05:07:21;;;;;;;24.08;14.15;;;;;;;2.33;100.00;100995.56;5006634;28;21155;-72
2021/01/04 05:10:06;;;;;;;23.98;14.02;;;;;;;2.29;100.00;101001.84;4968490;28;20045;-70
2021/01/04 05:12:38;;;;;;;24.08;13.95;;;;;;;2.25;100.00;101000.19;5008300;28;20394;-72
2021/01/04 05:15:33;;;;;;;26.13;15.23;;;;;;;2.32;100.00;101000.91;4989559;28;20038;-72
2021/01/04 05:18:18;;;;;;;25.42;15.02;;;;;;;2.30;100.00;101000.94;5003368;28;20120;-72
2021/01/04 05:21:18;;;;;;;29.80;16.05;;;;;;;2.37;100.00;101007.81;4990633;28;20109;-71
2021/01/04 05:23:59;;;;;;;31.92;17.40;;;;;;;2.26;100.00;101007.22;5006230;28;20409;-72
2021/01/04 05:26:40;;;;;;;26.98;15.57;;;;;;;2.31;100.00;101005.31;5007827;28;20528;-71
2021/01/04 05:29:27;;;;;;;30.90;15.95;;;;;;;2.32;100.00;101011.50;5008498;28;20034;-71
2021/01/04 05:32:22;;;;;;;31.98;17.27;;;;;;;2.35;100.00;101014.03;4989172;28;20107;-72
2021/01/04 05:34:55;;;;;;;33.92;17.88;;;;;;;2.27;100.00;101013.41;5004815;28;20033;-72
2021/01/04 05:37:29;;;;;;;31.30;18.35;;;;;;;2.16;100.00;101011.00;5007097;28;20025;-72
2021/01/04 05:40:42;;;;;;;34.17;17.38;;;;;;;2.22;100.00;101010.84;5006932;28;20026;-72
2021/01/04 05:43:08;;;;;;;28.70;16.35;;;;;;;2.15;100.00;101014.59;5001598;28;20060;-70
2021/01/04 05:45:59;;;;;;;32.97;18.02;;;;;;;2.23;100.00;101011.72;5007094;28;20038;-72
2021/01/04 05:48:35;;;;;;;34.50;18.35;;;;;;;2.13;100.00;101021.69;5007693;28;20018;-72
2021/01/04 05:51:15;;;;;;;33.10;16.52;;;;;;;2.16;100.00;101016.28;4987666;28;20038;-69
2021/01/04 05:53:42;;;;;;;34.42;18.45;;;;;;;2.11;100.00;101017.31;4982364;28;20030;-72
2021/01/04 05:56:07;;;;;;;34.13;17.48;;;;;;;2.13;100.00;101020.81;5006928;28;20029;-72
2021/01/04 05:58:34;;;;;;;31.55;17.17;;;;;;;2.13;100.00;101019.03;5007494;28;20103;-71
2021/01/04 06:01:11;;;;;;;40.72;17.20;;;;;;;2.18;100.00;101021.56;4990709;28;20030;-72
2021/01/04 06:03:37;;;;;;;34.67;17.80;;;;;;;2.01;100.00;101011.41;5008953;28;20037;-71
2021/01/04 06:06:20;;;;;;;32.70;17.48;;;;;;;1.93;100.00;101018.66;4989485;28;20046;-70
2021/01/04 06:08:46;;;;;;;32.17;17.60;;;;;;;2.04;100.00;101033.34;5008468;28;20128;-72
2021/01/04 06:11:14;;;;;;;35.80;18.38;;;;;;;2.08;100.00;101022.72;5008445;28;20120;-72
2021/01/04 06:13:45;;;;;;;37.33;18.52;;;;;;;2.03;100.00;101020.19;4991353;28;20038;-71
2021/01/04 06:16:17;;;;;;;34.60;18.58;;;;;;;1.96;100.00;101034.47;4990734;28;20034;-72
2021/01/04 06:18:50;;;;;;;30.70;17.75;;;;;;;2.07;100.00;101037.72;5012563;28;20040;-72
2021/01/04 06:21:20;;;;;;;38.20;18.50;;;;;;;1.90;100.00;101034.63;5007097;28;20117;-72
2021/01/04 06:23:46;;;;;;;35.33;18.13;;;;;;;2.06;100.00;101033.31;5008830;28;20363;-72
2021/01/04 06:26:17;;;;;;;32.53;18.08;;;;;;;2.09;100.00;101049.16;5004761;28;20040;-72
2021/01/04 06:29:02;;;;;;;36.40;18.20;;;;;;;2.03;100.00;101049.31;4986878;28;20069;-72
2021/01/04 06:31:52;;;;;;;31.73;17.90;;;;;;;2.00;100.00;101054.66;5002169;28;20034;-71
2021/01/04 06:34:22;;;;;;;36.05;17.77;;;;;;;2.07;100.00;101053.59;5011871;28;20033;-73
2021/01/04 06:36:51;;;;;;;32.10;17.48;;;;;;;1.99;100.00;101063.50;5006041;28;20030;-73
2021/01/04 06:39:24;;;;;;;33.65;18.65;;;;;;;2.02;100.00;101050.22;4994306;28;20401;-72
2021/01/04 06:41:51;;;;;;;39.50;18.63;;;;;;;2.14;100.00;101065.78;5008614;28;20042;-72
2021/01/04 06:44:24;;;;;;;31.20;16.42;;;;;;;2.16;100.00;101063.97;5015451;28;20024;-72
2021/01/04 06:47:18;;;;;;;34.88;18.48;;;;;;;2.11;100.00;101064.97;5011860;28;20025;-72
2021/01/04 06:50:12;;;;;;;34.10;16.98;;;;;;;2.23;100.00;101070.84;5005128;28;20050;-70
2021/01/04 06:52:56;;;;;;;33.75;17.60;;;;;;;2.20;100.00;101070.94;5006455;28;20077;-73
2021/01/04 06:55:37;;;;;;;30.75;17.27;;;;;;;2.17;100.00;101073.66;4992207;28;20536;-72
2021/01/04 06:58:22;;;;;;;32.17;17.35;;;;;;;2.14;100.00;101071.09;5010291;28;20508;-72
2021/01/04 07:01:00;;;;;;;30.67;18.10;;;;;;;2.19;100.00;101077.13;5009116;28;20031;-72
2021/01/04 07:03:44;;;;;;;35.13;17.40;;;;;;;2.12;100.00;101072.03;4994463;28;20041;-72
2021/01/04 07:06:34;;;;;;;28.58;17.27;;;;;;;2.15;100.00;101075.50;4994053;28;20137;-71
2021/01/04 07:09:17;;;;;;;29.17;16.77;;;;;;;2.24;100.00;101083.19;5007641;28;20049;-72
2021/01/04 07:12:14;;;;;;;27.48;17.25;;;;;;;2.29;100.00;101091.88;4993101;28;20061;-72
2021/01/04 07:14:53;;;;;;;28.70;16.70;;;;;;;2.27;100.00;101087.56;5007190;28;20029;-72
2021/01/04 07:17:32;;;;;;;29.50;17.27;;;;;;;2.32;100.00;101089.19;5010956;28;20033;-72
2021/01/04 07:20:25;;;;;;;28.33;17.08;;;;;;;2.39;100.00;101097.84;5011000;28;20545;-72
2021/01/04 07:23:06;;;;;;;29.00;16.42;;;;;;;2.31;100.00;101094.50;5004274;28;20083;-70
2021/01/04 07:25:47;;;;;;;29.70;17.38;;;;;;;2.26;100.00;101091.97;5008437;28;20038;-72
2021/01/04 07:28:55;;;;;;;32.38;18.63;;;;;;;2.32;100.00;101091.84;5009031;28;20053;-72
2021/01/04 07:31:29;;;;;;;29.73;17.90;;;;;;;2.35;100.00;101097.03;5008107;28;20040;-70
2021/01/04 07:34:01;;;;;;;30.08;18.17;;;;;;;2.36;100.00;101098.78;4987203;28;20034;-72
2021/01/04 07:36:37;;;;;;;31.85;18.35;;;;;;;2.35;100.00;101097.03;5004372;28;20037;-71
2021/01/04 07:39:31;;;;;;;31.77;19.08;;;;;;;2.41;100.00;101101.31;5006260;28;20069;-71
2021/01/04 07:42:26;;;;;;;32.42;18.63;;;;;;;2.29;100.00;101106.91;5009702;28;20718;-71
2021/01/04 07:45:04;;;;;;;28.10;16.48;;;;;;;2.26;100.00;101107.88;4959661;28;20084;-69
2021/01/04 07:47:59;;;;;;;27.90;16.50;;;;;;;2.32;100.00;101106.84;5006756;28;20048;-72
2021/01/04 07:51:05;;;;;;;27.20;16.30;;;;;;;2.40;100.00;101104.88;4938002;28;20143;-71
2021/01/04 07:53:58;;;;;;;47.17;23.17;;;;;;;2.41;100.00;101107.47;4991316;28;20038;-72
2021/01/04 07:56:27;;;;;;;;;;;;;;;2.35;100.00;101102.34;5003364;28;20045;-71
2021/01/04 07:59:30;;;;;;;24.65;15.15;;;;;;;2.38;100.00;101112.88;5005469;28;20008;-72
2021/01/04 08:02:02;;;;;;;23.00;14.60;;;;;;;2.38;100.00;101112.00;5005074;28;20030;-70
2021/01/04 08:04:52;;;;;;;26.05;15.25;;;;;;;2.34;100.00;101113.88;5007733;28;20033;-72
2021/01/04 08:07:45;;;;;;;26.55;15.38;;;;;;;2.32;100.00;101123.63;5007379;28;20083;-72
2021/01/04 08:10:25;;;;;;;21.70;13.88;;;;;;;2.39;100.00;101119.91;5007399;28;20038;-71
2021/01/04 08:13:02;;;;;;;26.27;16.20;;;;;;;2.39;100.00;101117.25;5008496;28;20037;-72
2021/01/04 08:15:42;;;;;;;24.17;14.25;;;;;;;2.28;100.00;101121.97;5006351;28;20153;-72
2021/01/04 08:18:17;;;;;;;28.00;15.85;;;;;;;2.39;100.00;101125.22;5006668;28;20034;-71
2021/01/04 08:20:53;;;;;;;25.60;16.08;;;;;;;2.39;100.00;101135.81;5008768;28;20397;-72
2021/01/04 08:23:48;;;;;;;25.55;15.05;;;;;;;2.33;100.00;101124.50;5008319;28;20502;-71
2021/01/04 08:26:42;;;;;;;25.08;14.68;;;;;;;2.27;100.00;101125.50;4987523;28;20128;-72
2021/01/04 08:29:15;;;;;;;26.00;15.70;;;;;;;2.37;100.00;101129.66;4970222;28;20050;-72
2021/01/04 08:31:54;;;;;;;25.65;16.23;;;;;;;2.38;100.00;101128.75;5005851;28;20022;-71
2021/01/04 08:34:22;;;;;;;31.60;16.88;;;;;;;2.32;100.00;101131.56;5009010;28;20038;-72
2021/01/04 08:36:59;;;;;;;28.83;16.77;;;;;;;2.25;100.00;101134.38;5007739;28;20084;-72
2021/01/04 08:39:24;;;;;;;27.23;16.67;;;;;;;2.36;100.00;101135.00;5004497;28;20498;-71
2021/01/04 08:42:02;;;;;;;27.33;15.25;;;;;;;2.37;100.00;101132.31;5008914;28;20030;-72
2021/01/04 08:44:28;;;;;;;28.02;16.65;;;;;;;2.38;100.00;101141.13;4997021;28;20084;-72
2021/01/04 08:46:54;;;;;;;26.85;15.82;;;;;;;2.39;100.00;101142.88;4987843;28;20042;-70
2021/01/04 08:49:40;;;;;;;30.48;17.73;;;;;;;2.35;100.00;101133.25;5005042;28;20127;-72
2021/01/04 08:52:21;;;;;;;27.98;16.33;;;;;;;2.42;100.00;101140.16;5004770;28;20037;-72
2021/01/04 08:55:06;;;;;;;27.42;16.63;;;;;;;2.35;100.00;101136.78;4986330;28;20085;-72
2021/01/04 08:58:12;;;;;;;31.27;16.92;;;;;;;2.41;100.00;101139.28;5007188;28;20036;-72
2021/01/04 09:00:38;;;;;;;28.55;17.58;;;;;;;2.46;100.00;101140.97;4983191;28;20052;-71
2021/01/04 09:03:03;;;;;;;30.88;17.60;;;;;;;2.30;100.00;101141.31;4989511;28;20037;-72
2021/01/04 09:05:29;;;;;;;33.58;16.45;;;;;;;2.43;100.00;101147.19;5006026;28;20068;-72
2021/01/04 09:07:56;;;;;;;29.58;17.63;;;;;;;2.49;100.00;101148.81;5006358;28;20069;-70
2021/01/04 09:10:25;;;;;;;28.30;17.45;;;;;;;2.48;100.00;101144.41;5005934;28;20094;-72
2021/01/04 09:12:53;;;;;;;28.63;16.88;;;;;;;2.50;100.00;101142.63;4992036;28;20513;-72
2021/01/04 09:15:19;;;;;;;30.55;17.60;;;;;;;2.48;100.00;101153.25;4989022;28;20068;-71
2021/01/04 09:17:47;;;;;;;32.60;18.17;;;;;;;2.42;100.00;101145.44;4973373;28;20069;-72
2021/01/04 09:20:26;;;;;;;31.27;17.55;;;;;;;2.49;100.00;101152.34;5004024;28;20490;-72
2021/01/04 09:23:10;;;;;;;31.80;18.27;;;;;;;2.42;100.00;101148.97;5008018;28;20038;-71
2021/01/04 09:25:44;;;;;;;32.85;17.92;;;;;;;2.46;100.00;101162.16;5003993;28;20120;-72
2021/01/04 09:28:10;;;;;;;34.50;18.55;;;;;;;2.55;100.00;101151.31;5011894;28;20057;-72
2021/01/04 09:30:35;;;;;;;34.38;18.52;;;;;;;2.51;100.00;101160.25;4988184;28;20468;-71
2021/01/04 09:33:23;;;;;;;30.23;17.73;;;;;;;2.49;100.00;101162.06;5008742;28;20522;-72
2021/01/04 09:35:49;;;;;;;32.00;17.88;;;;;;;2.61;100.00;101156.47;5008348;28;20030;-70
2021/01/04 09:38:23;;;;;;;31.38;17.45;;;;;;;2.54;100.00;101157.53;5006517;28;20049;-72
2021/01/04 09:40:52;;;;;;;29.30;17.60;;;;;;;2.61;100.00;101153.81;4992760;28;20034;-71
2021/01/04 09:43:23;;;;;;;31.42;17.63;;;;;;;2.56;100.00;101161.00;4989469;28;20037;-72
2021/01/04 09:45:49;;;;;;;29.83;17.15;;;;;;;2.65;100.00;101160.81;4991912;28;20277;-72
2021/01/04 09:48:31;;;;;;;31.77;17.30;;;;;;;2.63;100.00;101159.97;5005932;28;20048;-72
2021/01/04 09:51:02;;;;;;;32.10;18.07;;;;;;;2.62;100.00;101158.22;5003455;28;20038;-71
2021/01/04 09:53:34;;;;;;;27.20;16.95;;;;;;;2.66;100.00;101159.88;5008131;28;20321;-69
2021/01/04 09:56:05;;;;;;;29.90;17.45;;;;;;;2.60;100.00;101160.00;5008221;28;20461;-72
2021/01/04 09:58:31;;;;;;;30.02;18.02;;;;;;;2.55;100.00;101161.91;5007519;28;20040;-71
2021/01/04 10:01:15;;;;;;;28.85;17.52;;;;;;;2.58;100.00;101160.06;5005839;28;20026;-71
2021/01/04 10:03:53;;;;;;;40.28;19.30;;;;;;;2.55;100.00;101167.22;5008237;28;20040;-72
2021/01/04 10:06:21;;;;;;;33.53;18.45;;;;;;;2.62;100.00;101163.50;5006277;28;20030;-71
2021/01/04 10:08:47;;;;;;;38.90;20.02;;;;;;;2.74;100.00;101163.19;5003274;28;20099;-72
2021/01/04 10:11:19;;;;;;;40.53;20.50;;;;;;;2.68;100.00;101163.34;4988039;28;20053;-72
2021/01/04 10:13:44;;;;;;;46.87;25.23;;;;;;;2.63;100.00;101163.47;5004925;28;20038;-72
2021/01/04 10:16:15;;;;;;;43.00;22.80;;;;;;;2.66;100.00;101154.56;5006356;28;20293;-72
2021/01/04 10:18:58;;;;;;;36.13;19.73;;;;;;;2.70;100.00;101150.94;5007182;28;20034;-72
2021/01/04 10:21:46;;;;;;;35.97;20.02;;;;;;;2.73;100.00;101157.03;5005841;28;20272;-72
2021/01/04 10:24:33;;;;;;;35.92;19.13;;;;;;;2.70;100.00;101158.91;5005788;28;20498;-72
2021/01/04 10:27:04;;;;;;;41.47;20.80;;;;;;;2.67;100.00;101151.00;5006208;28;20068;-72
2021/01/04 10:29:31;;;;;;;79.50;35.90;;;;;;;2.76;100.00;101156.09;5010585;28;20045;-73
2021/01/04 10:32:12;;;;;;;38.25;19.75;;;;;;;2.73;100.00;101156.16;4987984;28;20046;-71
2021/01/04 10:34:44;;;;;;;35.53;19.08;;;;;;;2.79;100.00;101156.00;4984173;28;20065;-71
2021/01/04 10:37:51;;;;;;;36.20;19.33;;;;;;;2.80;100.00;101152.44;4987736;28;20037;-72
2021/01/04 10:40:20;;;;;;;37.15;19.60;;;;;;;2.72;100.00;101154.41;5006602;28;20026;-73
2021/01/04 10:42:47;;;;;;;35.75;19.55;;;;;;;2.80;100.00;101152.44;4989606;28;20109;-73
2021/01/04 10:45:17;;;;;;;33.63;18.30;;;;;;;2.80;100.00;101152.44;5009432;28;20030;-73
2021/01/04 10:48:16;;;;;;;45.95;21.55;;;;;;;2.71;100.00;101150.03;4987207;28;20049;-73
2021/01/04 10:50:45;;;;;;;36.83;20.30;;;;;;;2.79;100.00;101161.31;4995509;28;20073;-73
2021/01/04 10:53:36;;;;;;;37.28;19.58;;;;;;;2.80;100.00;101158.63;5005394;28;20122;-72
2021/01/04 10:56:09;;;;;;;35.03;17.67;;;;;;;2.88;100.00;101157.56;5005963;28;20423;-73
2021/01/04 10:58:40;;;;;;;33.70;18.98;;;;;;;2.82;100.00;101161.25;5010406;28;20080;-72
2021/01/04 11:01:20;;;;;;;29.90;16.33;;;;;;;2.91;100.00;101150.38;4993751;28;20038;-73
2021/01/04 11:03:53;;;;;;;31.40;16.75;;;;;;;2.92;100.00;101151.25;4995274;28;20038;-73
2021/01/04 11:06:25;;;;;;;28.65;15.85;;;;;;;2.94;100.00;101150.31;4989183;28;20114;-73
2021/01/04 11:08:50;;;;;;;27.75;16.00;;;;;;;2.93;100.00;101148.56;5012302;28;20482;-73
2021/01/04 11:11:35;;;;;;;29.08;16.10;;;;;;;2.86;100.00;101141.69;5005543;28;20124;-73
2021/01/04 11:14:15;;;;;;;26.98;15.52;;;;;;;2.84;100.00;101141.72;5014559;28;20050;-71
2021/01/04 11:16:43;;;;;;;27.50;14.15;;;;;;;2.88;100.00;101145.19;4986029;28;20149;-73
2021/01/04 11:19:09;;;;;;;26.50;12.95;;;;;;;2.85;100.00;101147.88;5007088;28;20153;-71
2021/01/04 11:21:38;;;;;;;22.42;12.82;;;;;;;2.93;100.00;101143.25;5006589;28;20545;-73
2021/01/04 11:24:04;;;;;;;21.75;12.68;;;;;;;2.86;100.00;101141.69;4975083;28;20042;-73
2021/01/04 11:26:29;;;;;;;21.55;13.20;;;;;;;2.75;100.00;101139.31;5014388;28;20564;-73
2021/01/04 11:28:56;;;;;;;23.65;13.60;;;;;;;2.83;100.00;101128.53;5010940;28;20562;-73
2021/01/04 11:31:21;;;;;;;24.67;13.65;;;;;;;2.80;100.00;101125.94;5009265;28;20034;-73
2021/01/04 11:33:47;;;;;;;26.80;14.18;;;;;;;2.79;100.00;101126.84;5010873;28;20041;-73
2021/01/04 11:36:12;;;;;;;30.25;15.02;;;;;;;2.82;100.00;101125.00;5008572;28;20137;-73
2021/01/04 11:38:38;;;;;;;25.83;14.80;;;;;;;2.84;100.00;101124.94;4995764;28;20133;-71
2021/01/04 11:41:03;;;;;;;25.52;14.45;;;;;;;2.94;100.00;101120.28;5009899;28;20053;-72
2021/01/04 11:43:28;;;;;;;29.90;15.52;;;;;;;2.87;100.00;101116.03;5010337;28;20029;-68
2021/01/04 11:45:54;;;;;;;26.23;15.32;;;;;;;2.93;100.00;101121.19;5009111;28;20081;-70
2021/01/04 11:48:19;;;;;;;26.05;15.20;;;;;;;3.02;100.00;101110.34;5010507;28;20048;-69
2021/01/04 11:50:45;;;;;;;27.40;15.50;;;;;;;2.94;100.00;101115.84;5009285;28;20030;-72
2021/01/04 11:53:10;;;;;;;24.05;14.25;;;;;;;2.92;100.00;101104.41;4990592;28;20451;-72